sensor_id;sensor_type;location;lat;lon;timestamp;temperature;humidity
3942;DHT22;1985;48.592;8.850;2023-04-24T00:00:47;12.10;99.90
3942;DHT22;1985;48.592;8.850;2023-04-24T00:03:12;12.10;99.90
3942;DHT22;1985;48.592;8.850;2023-04-24T00:05:38;11.90;99.90
3942;DHT22;1985;48.592;8.850;2023-04-24T00:08:05;11.90;99.90
3942;DHT22;1985;48.592;8.850;2023-04-24T00:10:31;11.90;99.90
3942;DHT22;1985;48.592;8.850;2023-04-24T00:12:57;11.90;99.90
3942;DHT22;1985;48.592;8.850;2023-04-24T00:15:22;11.90;99.90
3942;DHT22;1985;48.592;8.850;2023-04-24T00:17:48;11.90;99.90
3942;DHT22;1985;48.592;8.850;2023-04-24T00:20:15;11.80;99.90
3942;DHT22;1985;48.592;8.850;2023-04-24T00:22:41;11.70;99.90
3942;DHT22;1985;48.592;8.850;2023-04-24T00:25:06;11.70;99.90
3942;DHT22;1985;48.592;8.850;2023-04-24T00:27:32;11.40;99.90
3942;DHT22;1985;48.592;8.850;2023-04-24T00:29:58;11.40;99.90
3942;DHT22;1985;48.592;8.850;2023-04-24T00:32:23;11.30;99.90
3942;DHT22;1985;48.592;8.850;2023-04-24T00:34:49;11.10;99.90
3942;DHT22;1985;48.592;8.850;2023-04-24T00:37:15;11.10;99.90
3942;DHT22;1985;48.592;8.850;2023-04-24T00:39:41;11.20;99.90
3942;DHT22;1985;48.592;8.850;2023-04-24T00:42:06;11.20;99.90
3942;DHT22;1985;48.592;8.850;2023-04-24T00:44:35;11.30;99.90
3942;DHT22;1985;48.592;8.850;2023-04-24T00:47:01;11.40;99.90
3942;DHT22;1985;48.592;8.850;2023-04-24T00:49:26;11.50;99.90
3942;DHT22;1985;48.592;8.850;2023-04-24T00:51:52;11.50;99.90
3942;DHT22;1985;48.592;8.850;2023-04-24T00:54:19;11.40;99.90
3942;DHT22;1985;48.592;8.850;2023-04-24T00:56:45;11.40;99.90
3942;DHT22;1985;48.592;8.850;2023-04-24T00:59:12;11.40;99.90
3942;DHT22;1985;48.592;8.850;2023-04-24T01:01:38;11.50;99.90
3942;DHT22;1985;48.592;8.850;2023-04-24T01:04:07;11.50;99.90
3942;DHT22;1985;48.592;8.850;2023-04-24T01:06:34;11.60;99.90
3942;DHT22;1985;48.592;8.850;2023-04-24T01:09:00;11.60;99.90
3942;DHT22;1985;48.592;8.850;2023-04-24T01:11:26;11.60;99.90
3942;DHT22;1985;48.592;8.850;2023-04-24T01:13:52;11.60;99.90
3942;DHT22;1985;48.592;8.850;2023-04-24T01:16:19;11.60;99.90
3942;DHT22;1985;48.592;8.850;2023-04-24T01:18:46;11.60;99.90
3942;DHT22;1985;48.592;8.850;2023-04-24T01:21:14;11.40;99.90
3942;DHT22;1985;48.592;8.850;2023-04-24T01:23:44;11.50;99.90
3942;DHT22;1985;48.592;8.850;2023-04-24T01:26:12;11.60;99.90
3942;DHT22;1985;48.592;8.850;2023-04-24T01:28:38;11.50;99.90
3942;DHT22;1985;48.592;8.850;2023-04-24T01:31:04;11.60;99.90
3942;DHT22;1985;48.592;8.850;2023-04-24T01:33:30;11.60;99.90
3942;DHT22;1985;48.592;8.850;2023-04-24T01:35:55;11.70;99.90
3942;DHT22;1985;48.592;8.850;2023-04-24T01:38:21;11.70;99.90
3942;DHT22;1985;48.592;8.850;2023-04-24T01:40:47;11.60;99.90
3942;DHT22;1985;48.592;8.850;2023-04-24T01:43:13;11.40;99.90
3942;DHT22;1985;48.592;8.850;2023-04-24T01:45:39;11.20;99.90
3942;DHT22;1985;48.592;8.850;2023-04-24T01:48:04;11.00;99.90
3942;DHT22;1985;48.592;8.850;2023-04-24T01:50:30;10.70;99.90
3942;DHT22;1985;48.592;8.850;2023-04-24T01:52:56;10.50;99.90
3942;DHT22;1985;48.592;8.850;2023-04-24T01:55:22;10.50;99.90
3942;DHT22;1985;48.592;8.850;2023-04-24T01:57:47;10.40;99.90
3942;DHT22;1985;48.592;8.850;2023-04-24T02:00:14;10.40;99.90
3942;DHT22;1985;48.592;8.850;2023-04-24T02:02:41;10.50;99.90
3942;DHT22;1985;48.592;8.850;2023-04-24T02:05:08;10.40;99.90
3942;DHT22;1985;48.592;8.850;2023-04-24T02:07:33;10.30;99.90
3942;DHT22;1985;48.592;8.850;2023-04-24T02:09:59;10.40;99.90
3942;DHT22;1985;48.592;8.850;2023-04-24T02:12:25;10.40;99.90
3942;DHT22;1985;48.592;8.850;2023-04-24T02:14:50;10.40;99.90
3942;DHT22;1985;48.592;8.850;2023-04-24T02:17:17;10.50;99.90
3942;DHT22;1985;48.592;8.850;2023-04-24T02:19:44;10.50;99.90
3942;DHT22;1985;48.592;8.850;2023-04-24T02:22:10;10.40;99.90
3942;DHT22;1985;48.592;8.850;2023-04-24T02:24:36;10.40;99.90
3942;DHT22;1985;48.592;8.850;2023-04-24T02:27:02;10.30;99.90
3942;DHT22;1985;48.592;8.850;2023-04-24T02:29:28;10.30;99.90
3942;DHT22;1985;48.592;8.850;2023-04-24T02:31:54;10.20;99.90
3942;DHT22;1985;48.592;8.850;2023-04-24T02:34:19;10.20;99.90
3942;DHT22;1985;48.592;8.850;2023-04-24T02:36:45;10.20;99.90
3942;DHT22;1985;48.592;8.850;2023-04-24T02:39:10;10.30;99.90
3942;DHT22;1985;48.592;8.850;2023-04-24T02:41:36;10.40;99.90
3942;DHT22;1985;48.592;8.850;2023-04-24T02:44:02;10.40;99.90
3942;DHT22;1985;48.592;8.850;2023-04-24T02:46:27;10.40;99.90
3942;DHT22;1985;48.592;8.850;2023-04-24T02:48:53;10.40;99.90
3942;DHT22;1985;48.592;8.850;2023-04-24T02:51:19;10.50;99.90
3942;DHT22;1985;48.592;8.850;2023-04-24T02:53:44;10.40;99.90
3942;DHT22;1985;48.592;8.850;2023-04-24T02:56:10;10.50;99.90
3942;DHT22;1985;48.592;8.850;2023-04-24T02:58:37;10.50;99.90
3942;DHT22;1985;48.592;8.850;2023-04-24T03:01:03;10.50;99.90
3942;DHT22;1985;48.592;8.850;2023-04-24T03:03:29;10.40;99.90
3942;DHT22;1985;48.592;8.850;2023-04-24T03:05:54;10.30;99.90
3942;DHT22;1985;48.592;8.850;2023-04-24T03:08:22;10.20;99.90
3942;DHT22;1985;48.592;8.850;2023-04-24T03:10:47;10.20;99.90
3942;DHT22;1985;48.592;8.850;2023-04-24T03:13:13;10.10;99.90
3942;DHT22;1985;48.592;8.850;2023-04-24T03:15:39;10.10;99.90
3942;DHT22;1985;48.592;8.850;2023-04-24T03:18:04;10.10;99.90
3942;DHT22;1985;48.592;8.850;2023-04-24T03:20:30;10.10;99.90
3942;DHT22;1985;48.592;8.850;2023-04-24T03:22:56;10.10;99.90
3942;DHT22;1985;48.592;8.850;2023-04-24T03:25:22;10.20;99.90
3942;DHT22;1985;48.592;8.850;2023-04-24T03:27:48;10.10;99.90
3942;DHT22;1985;48.592;8.850;2023-04-24T03:30:13;10.10;99.90
3942;DHT22;1985;48.592;8.850;2023-04-24T03:32:39;10.00;99.90
3942;DHT22;1985;48.592;8.850;2023-04-24T03:35:06;10.00;99.90
3942;DHT22;1985;48.592;8.850;2023-04-24T03:37:32;10.10;99.90
3942;DHT22;1985;48.592;8.850;2023-04-24T03:39:58;10.00;99.90
3942;DHT22;1985;48.592;8.850;2023-04-24T03:42:24;10.00;99.90
3942;DHT22;1985;48.592;8.850;2023-04-24T03:44:49;9.90;99.90
3942;DHT22;1985;48.592;8.850;2023-04-24T03:47:15;9.80;99.90
3942;DHT22;1985;48.592;8.850;2023-04-24T03:49:41;9.70;99.90
3942;DHT22;1985;48.592;8.850;2023-04-24T03:52:06;9.60;99.90
3942;DHT22;1985;48.592;8.850;2023-04-24T03:54:32;9.60;99.90
3942;DHT22;1985;48.592;8.850;2023-04-24T03:56:57;9.70;99.90
3942;DHT22;1985;48.592;8.850;2023-04-24T03:59:23;9.90;99.90
3942;DHT22;1985;48.592;8.850;2023-04-24T04:01:49;9.90;99.90
3942;DHT22;1985;48.592;8.850;2023-04-24T04:04:14;9.90;99.90
3942;DHT22;1985;48.592;8.850;2023-04-24T04:06:40;10.00;99.90
3942;DHT22;1985;48.592;8.850;2023-04-24T04:09:06;10.00;99.90
3942;DHT22;1985;48.592;8.850;2023-04-24T04:11:32;9.90;99.90
3942;DHT22;1985;48.592;8.850;2023-04-24T04:13:58;9.90;99.90
3942;DHT22;1985;48.592;8.850;2023-04-24T04:16:24;9.90;99.90
3942;DHT22;1985;48.592;8.850;2023-04-24T04:18:49;9.90;99.90
3942;DHT22;1985;48.592;8.850;2023-04-24T04:21:15;9.90;99.90
3942;DHT22;1985;48.592;8.850;2023-04-24T04:23:41;9.70;99.90
3942;DHT22;1985;48.592;8.850;2023-04-24T04:26:07;9.60;99.90
3942;DHT22;1985;48.592;8.850;2023-04-24T04:28:33;9.50;99.90
3942;DHT22;1985;48.592;8.850;2023-04-24T04:30:59;9.50;99.90
3942;DHT22;1985;48.592;8.850;2023-04-24T04:33:25;9.60;99.90
3942;DHT22;1985;48.592;8.850;2023-04-24T04:35:51;9.70;99.90
3942;DHT22;1985;48.592;8.850;2023-04-24T04:38:22;9.80;99.90
3942;DHT22;1985;48.592;8.850;2023-04-24T04:40:48;10.00;99.90
3942;DHT22;1985;48.592;8.850;2023-04-24T04:43:13;10.10;99.90
3942;DHT22;1985;48.592;8.850;2023-04-24T04:45:41;10.30;99.90
3942;DHT22;1985;48.592;8.850;2023-04-24T04:48:08;10.20;99.90
3942;DHT22;1985;48.592;8.850;2023-04-24T04:50:35;9.80;99.90
3942;DHT22;1985;48.592;8.850;2023-04-24T04:53:00;9.60;99.90
3942;DHT22;1985;48.592;8.850;2023-04-24T04:55:26;9.60;99.90
3942;DHT22;1985;48.592;8.850;2023-04-24T04:57:52;9.50;99.90
3942;DHT22;1985;48.592;8.850;2023-04-24T05:00:18;9.50;99.90
3942;DHT22;1985;48.592;8.850;2023-04-24T05:02:44;9.40;99.90
3942;DHT22;1985;48.592;8.850;2023-04-24T05:05:10;9.40;99.90
3942;DHT22;1985;48.592;8.850;2023-04-24T05:07:35;9.40;99.90
3942;DHT22;1985;48.592;8.850;2023-04-24T05:10:01;9.50;99.90
3942;DHT22;1985;48.592;8.850;2023-04-24T05:12:27;9.30;99.90
3942;DHT22;1985;48.592;8.850;2023-04-24T05:14:53;9.10;99.90
3942;DHT22;1985;48.592;8.850;2023-04-24T05:17:18;9.20;99.90
3942;DHT22;1985;48.592;8.850;2023-04-24T05:19:44;9.30;99.90
3942;DHT22;1985;48.592;8.850;2023-04-24T05:22:10;9.70;99.90
3942;DHT22;1985;48.592;8.850;2023-04-24T05:24:37;9.70;99.90
3942;DHT22;1985;48.592;8.850;2023-04-24T05:27:03;9.90;99.90
3942;DHT22;1985;48.592;8.850;2023-04-24T05:29:30;9.90;99.90
3942;DHT22;1985;48.592;8.850;2023-04-24T05:31:59;9.70;99.90
3942;DHT22;1985;48.592;8.850;2023-04-24T05:34:25;9.70;99.90
3942;DHT22;1985;48.592;8.850;2023-04-24T05:36:51;9.80;99.90
3942;DHT22;1985;48.592;8.850;2023-04-24T05:39:17;10.00;99.90
3942;DHT22;1985;48.592;8.850;2023-04-24T05:41:43;10.30;99.90
3942;DHT22;1985;48.592;8.850;2023-04-24T05:44:09;10.30;99.90
3942;DHT22;1985;48.592;8.850;2023-04-24T05:46:35;10.20;99.90
3942;DHT22;1985;48.592;8.850;2023-04-24T05:49:01;10.20;99.90
3942;DHT22;1985;48.592;8.850;2023-04-24T05:51:27;10.20;99.90
3942;DHT22;1985;48.592;8.850;2023-04-24T05:53:53;10.20;99.90
3942;DHT22;1985;48.592;8.850;2023-04-24T05:56:18;10.20;99.90
3942;DHT22;1985;48.592;8.850;2023-04-24T05:58:45;10.20;99.90
3942;DHT22;1985;48.592;8.850;2023-04-24T06:01:11;10.10;99.90
3942;DHT22;1985;48.592;8.850;2023-04-24T06:03:38;10.20;99.90
3942;DHT22;1985;48.592;8.850;2023-04-24T06:06:03;10.40;99.90
3942;DHT22;1985;48.592;8.850;2023-04-24T06:08:29;10.50;99.90
3942;DHT22;1985;48.592;8.850;2023-04-24T06:10:55;10.60;99.90
3942;DHT22;1985;48.592;8.850;2023-04-24T06:13:20;10.50;99.90
3942;DHT22;1985;48.592;8.850;2023-04-24T06:15:46;10.70;99.90
3942;DHT22;1985;48.592;8.850;2023-04-24T06:18:12;11.00;99.90
3942;DHT22;1985;48.592;8.850;2023-04-24T06:20:38;11.20;99.90
3942;DHT22;1985;48.592;8.850;2023-04-24T06:23:03;11.10;99.90
3942;DHT22;1985;48.592;8.850;2023-04-24T06:25:29;11.20;99.90
3942;DHT22;1985;48.592;8.850;2023-04-24T06:27:55;11.30;99.90
3942;DHT22;1985;48.592;8.850;2023-04-24T06:30:21;11.40;99.90
3942;DHT22;1985;48.592;8.850;2023-04-24T06:32:46;11.10;99.90
3942;DHT22;1985;48.592;8.850;2023-04-24T06:35:12;11.10;99.90
3942;DHT22;1985;48.592;8.850;2023-04-24T06:37:42;11.00;99.90
3942;DHT22;1985;48.592;8.850;2023-04-24T06:40:08;10.90;99.90
3942;DHT22;1985;48.592;8.850;2023-04-24T06:42:33;10.90;99.90
3942;DHT22;1985;48.592;8.850;2023-04-24T06:45:00;10.90;99.90
3942;DHT22;1985;48.592;8.850;2023-04-24T06:47:26;10.90;99.90
3942;DHT22;1985;48.592;8.850;2023-04-24T06:49:52;10.70;99.90
3942;DHT22;1985;48.592;8.850;2023-04-24T06:52:18;10.60;99.90
3942;DHT22;1985;48.592;8.850;2023-04-24T06:54:44;10.50;99.90
3942;DHT22;1985;48.592;8.850;2023-04-24T06:57:10;10.60;99.90
3942;DHT22;1985;48.592;8.850;2023-04-24T06:59:36;10.30;99.90
3942;DHT22;1985;48.592;8.850;2023-04-24T07:02:01;10.10;99.90
3942;DHT22;1985;48.592;8.850;2023-04-24T07:04:28;10.00;99.90
3942;DHT22;1985;48.592;8.850;2023-04-24T07:06:54;9.80;99.90
3942;DHT22;1985;48.592;8.850;2023-04-24T07:09:21;9.70;99.90
3942;DHT22;1985;48.592;8.850;2023-04-24T07:11:47;9.80;99.90
3942;DHT22;1985;48.592;8.850;2023-04-24T07:14:13;9.90;99.90
3942;DHT22;1985;48.592;8.850;2023-04-24T07:16:39;10.10;99.90
3942;DHT22;1985;48.592;8.850;2023-04-24T07:19:05;10.30;99.90
3942;DHT22;1985;48.592;8.850;2023-04-24T07:21:30;10.50;99.90
3942;DHT22;1985;48.592;8.850;2023-04-24T07:24:00;10.70;99.90
3942;DHT22;1985;48.592;8.850;2023-04-24T07:26:27;10.80;99.90
3942;DHT22;1985;48.592;8.850;2023-04-24T07:28:53;10.70;99.90
3942;DHT22;1985;48.592;8.850;2023-04-24T07:31:19;10.60;99.90
3942;DHT22;1985;48.592;8.850;2023-04-24T07:33:44;10.60;99.90
3942;DHT22;1985;48.592;8.850;2023-04-24T07:36:11;10.60;99.90
3942;DHT22;1985;48.592;8.850;2023-04-24T07:38:41;10.50;99.90
3942;DHT22;1985;48.592;8.850;2023-04-24T07:41:07;10.50;99.90
3942;DHT22;1985;48.592;8.850;2023-04-24T07:43:33;10.40;99.90
3942;DHT22;1985;48.592;8.850;2023-04-24T07:45:59;10.40;99.90
3942;DHT22;1985;48.592;8.850;2023-04-24T07:48:25;10.60;99.90
3942;DHT22;1985;48.592;8.850;2023-04-24T07:50:52;10.70;99.90
3942;DHT22;1985;48.592;8.850;2023-04-24T07:53:17;10.70;99.90
3942;DHT22;1985;48.592;8.850;2023-04-24T07:55:43;10.90;99.90
3942;DHT22;1985;48.592;8.850;2023-04-24T07:58:09;10.80;99.90
3942;DHT22;1985;48.592;8.850;2023-04-24T08:00:34;10.70;99.90
3942;DHT22;1985;48.592;8.850;2023-04-24T08:03:00;10.60;99.90
3942;DHT22;1985;48.592;8.850;2023-04-24T08:05:26;10.60;99.90
3942;DHT22;1985;48.592;8.850;2023-04-24T08:07:54;10.70;99.90
3942;DHT22;1985;48.592;8.850;2023-04-24T08:10:21;11.00;99.90
3942;DHT22;1985;48.592;8.850;2023-04-24T08:12:47;11.00;99.90
3942;DHT22;1985;48.592;8.850;2023-04-24T08:15:13;11.30;99.90
3942;DHT22;1985;48.592;8.850;2023-04-24T08:17:39;11.40;99.90
3942;DHT22;1985;48.592;8.850;2023-04-24T08:20:05;11.50;99.90
3942;DHT22;1985;48.592;8.850;2023-04-24T08:22:31;11.20;99.90
3942;DHT22;1985;48.592;8.850;2023-04-24T08:24:59;11.20;99.90
3942;DHT22;1985;48.592;8.850;2023-04-24T08:27:25;11.50;99.90
3942;DHT22;1985;48.592;8.850;2023-04-24T08:29:53;11.30;99.90
3942;DHT22;1985;48.592;8.850;2023-04-24T08:32:18;11.30;99.90
3942;DHT22;1985;48.592;8.850;2023-04-24T08:34:44;11.10;99.90
3942;DHT22;1985;48.592;8.850;2023-04-24T08:37:10;10.70;99.90
3942;DHT22;1985;48.592;8.850;2023-04-24T08:39:36;10.50;99.90
3942;DHT22;1985;48.592;8.850;2023-04-24T08:42:02;10.40;99.90
3942;DHT22;1985;48.592;8.850;2023-04-24T08:44:33;10.60;99.90
3942;DHT22;1985;48.592;8.850;2023-04-24T08:47:00;10.60;99.90
3942;DHT22;1985;48.592;8.850;2023-04-24T08:49:28;10.80;99.90
3942;DHT22;1985;48.592;8.850;2023-04-24T08:51:54;10.90;99.90
3942;DHT22;1985;48.592;8.850;2023-04-24T08:54:20;10.90;99.90
3942;DHT22;1985;48.592;8.850;2023-04-24T08:56:47;11.30;99.90
3942;DHT22;1985;48.592;8.850;2023-04-24T08:59:14;11.50;99.90
3942;DHT22;1985;48.592;8.850;2023-04-24T09:01:41;11.70;99.90
3942;DHT22;1985;48.592;8.850;2023-04-24T09:04:08;11.60;99.90
3942;DHT22;1985;48.592;8.850;2023-04-24T09:06:35;11.60;99.20
3942;DHT22;1985;48.592;8.850;2023-04-24T09:09:02;11.70;99.90
3942;DHT22;1985;48.592;8.850;2023-04-24T09:11:31;12.10;99.90
3942;DHT22;1985;48.592;8.850;2023-04-24T09:13:58;12.60;99.90
3942;DHT22;1985;48.592;8.850;2023-04-24T09:16:25;12.60;97.60
3942;DHT22;1985;48.592;8.850;2023-04-24T09:18:51;12.40;96.30
3942;DHT22;1985;48.592;8.850;2023-04-24T09:21:17;12.60;97.60
3942;DHT22;1985;48.592;8.850;2023-04-24T09:23:43;12.50;95.70
3942;DHT22;1985;48.592;8.850;2023-04-24T09:26:09;12.30;93.50
3942;DHT22;1985;48.592;8.850;2023-04-24T09:28:37;12.60;95.90
3942;DHT22;1985;48.592;8.850;2023-04-24T09:31:11;12.60;93.20
3942;DHT22;1985;48.592;8.850;2023-04-24T09:33:38;12.80;92.50
3942;DHT22;1985;48.592;8.850;2023-04-24T09:36:04;12.90;93.50
3942;DHT22;1985;48.592;8.850;2023-04-24T09:38:36;12.90;92.30
3942;DHT22;1985;48.592;8.850;2023-04-24T09:41:03;12.90;90.20
3942;DHT22;1985;48.592;8.850;2023-04-24T09:43:30;12.80;88.40
3942;DHT22;1985;48.592;8.850;2023-04-24T09:45:56;12.80;86.40
3942;DHT22;1985;48.592;8.850;2023-04-24T09:48:33;12.90;88.10
3942;DHT22;1985;48.592;8.850;2023-04-24T09:51:01;12.80;84.70
3942;DHT22;1985;48.592;8.850;2023-04-24T09:53:27;12.80;83.10
3942;DHT22;1985;48.592;8.850;2023-04-24T09:55:53;12.40;83.20
3942;DHT22;1985;48.592;8.850;2023-04-24T09:58:25;12.60;86.80
3942;DHT22;1985;48.592;8.850;2023-04-24T10:00:54;12.80;85.00
3942;DHT22;1985;48.592;8.850;2023-04-24T10:03:20;12.60;84.80
3942;DHT22;1985;48.592;8.850;2023-04-24T10:05:46;12.40;86.50
3942;DHT22;1985;48.592;8.850;2023-04-24T10:08:13;12.10;88.40
3942;DHT22;1985;48.592;8.850;2023-04-24T10:10:41;12.10;87.60
3942;DHT22;1985;48.592;8.850;2023-04-24T10:13:09;12.40;88.10
3942;DHT22;1985;48.592;8.850;2023-04-24T10:15:38;12.80;89.20
3942;DHT22;1985;48.592;8.850;2023-04-24T10:18:06;13.30;90.00
3942;DHT22;1985;48.592;8.850;2023-04-24T10:20:33;12.80;88.60
3942;DHT22;1985;48.592;8.850;2023-04-24T10:23:00;12.60;90.20
3942;DHT22;1985;48.592;8.850;2023-04-24T10:25:28;12.30;91.10
3942;DHT22;1985;48.592;8.850;2023-04-24T10:27:54;11.80;91.30
3942;DHT22;1985;48.592;8.850;2023-04-24T10:30:26;12.20;92.00
3942;DHT22;1985;48.592;8.850;2023-04-24T10:32:52;12.00;91.50
3942;DHT22;1985;48.592;8.850;2023-04-24T10:35:18;12.00;93.20
3942;DHT22;1985;48.592;8.850;2023-04-24T10:37:55;12.00;92.50
3942;DHT22;1985;48.592;8.850;2023-04-24T10:40:31;12.00;93.60
3942;DHT22;1985;48.592;8.850;2023-04-24T10:42:58;12.20;93.30
3942;DHT22;1985;48.592;8.850;2023-04-24T10:45:24;12.50;93.00
3942;DHT22;1985;48.592;8.850;2023-04-24T10:50:45;12.50;90.40
3942;DHT22;1985;48.592;8.850;2023-04-24T10:53:18;12.70;92.10
3942;DHT22;1985;48.592;8.850;2023-04-24T10:55:50;12.60;91.60
3942;DHT22;1985;48.592;8.850;2023-04-24T10:58:35;12.10;91.80
3942;DHT22;1985;48.592;8.850;2023-04-24T11:01:01;12.00;92.70
3942;DHT22;1985;48.592;8.850;2023-04-24T11:03:30;12.20;91.80
3942;DHT22;1985;48.592;8.850;2023-04-24T11:08:36;12.80;91.10
3942;DHT22;1985;48.592;8.850;2023-04-24T11:18:57;11.10;93.10
3942;DHT22;1985;48.592;8.850;2023-04-24T11:21:25;10.90;95.00
3942;DHT22;1985;48.592;8.850;2023-04-24T11:23:51;10.60;96.00
3942;DHT22;1985;48.592;8.850;2023-04-24T11:26:23;11.40;96.10
3942;DHT22;1985;48.592;8.850;2023-04-24T11:29:06;12.10;94.80
3942;DHT22;1985;48.592;8.850;2023-04-24T11:31:40;13.00;94.30
3942;DHT22;1985;48.592;8.850;2023-04-24T11:34:08;13.30;92.20
3942;DHT22;1985;48.592;8.850;2023-04-24T11:36:35;13.70;92.40
3942;DHT22;1985;48.592;8.850;2023-04-24T11:39:01;12.90;91.30
3942;DHT22;1985;48.592;8.850;2023-04-24T11:41:28;13.30;92.70
3942;DHT22;1985;48.592;8.850;2023-04-24T11:43:54;12.80;91.90
3942;DHT22;1985;48.592;8.850;2023-04-24T11:46:29;12.30;92.30
3942;DHT22;1985;48.592;8.850;2023-04-24T11:48:58;11.90;93.10
3942;DHT22;1985;48.592;8.850;2023-04-24T11:51:25;11.70;93.50
3942;DHT22;1985;48.592;8.850;2023-04-24T11:53:55;11.60;93.50
3942;DHT22;1985;48.592;8.850;2023-04-24T11:56:22;11.50;93.90
3942;DHT22;1985;48.592;8.850;2023-04-24T11:58:48;11.60;94.20
3942;DHT22;1985;48.592;8.850;2023-04-24T12:01:13;11.40;93.60
3942;DHT22;1985;48.592;8.850;2023-04-24T12:03:39;11.10;94.50
3942;DHT22;1985;48.592;8.850;2023-04-24T12:06:09;10.80;95.00
3942;DHT22;1985;48.592;8.850;2023-04-24T12:08:36;10.80;94.70
3942;DHT22;1985;48.592;8.850;2023-04-24T12:11:05;10.80;95.60
3942;DHT22;1985;48.592;8.850;2023-04-24T12:13:35;10.80;95.20
3942;DHT22;1985;48.592;8.850;2023-04-24T12:16:04;10.70;95.10
3942;DHT22;1985;48.592;8.850;2023-04-24T12:18:31;10.80;95.50
3942;DHT22;1985;48.592;8.850;2023-04-24T12:21:18;11.10;95.90
3942;DHT22;1985;48.592;8.850;2023-04-24T12:23:45;11.10;95.70
3942;DHT22;1985;48.592;8.850;2023-04-24T12:26:19;11.20;96.80
3942;DHT22;1985;48.592;8.850;2023-04-24T12:28:47;10.70;99.90
3942;DHT22;1985;48.592;8.850;2023-04-24T12:31:15;10.40;99.90
3942;DHT22;1985;48.592;8.850;2023-04-24T12:33:41;10.90;99.90
3942;DHT22;1985;48.592;8.850;2023-04-24T12:36:10;11.80;99.90
3942;DHT22;1985;48.592;8.850;2023-04-24T12:38:37;12.30;99.90
3942;DHT22;1985;48.592;8.850;2023-04-24T12:41:08;12.10;99.90
3942;DHT22;1985;48.592;8.850;2023-04-24T12:43:35;11.90;99.90
3942;DHT22;1985;48.592;8.850;2023-04-24T12:46:01;11.40;99.90
3942;DHT22;1985;48.592;8.850;2023-04-24T12:48:27;11.40;99.90
3942;DHT22;1985;48.592;8.850;2023-04-24T12:50:53;11.10;99.90
3942;DHT22;1985;48.592;8.850;2023-04-24T12:53:19;11.00;99.90
3942;DHT22;1985;48.592;8.850;2023-04-24T12:55:45;11.00;99.90
3942;DHT22;1985;48.592;8.850;2023-04-24T12:58:12;10.80;99.90
3942;DHT22;1985;48.592;8.850;2023-04-24T13:00:38;10.80;99.90
3942;DHT22;1985;48.592;8.850;2023-04-24T13:03:04;10.90;99.90
3942;DHT22;1985;48.592;8.850;2023-04-24T13:05:30;10.70;99.90
3942;DHT22;1985;48.592;8.850;2023-04-24T13:07:56;10.80;99.10
3942;DHT22;1985;48.592;8.850;2023-04-24T13:10:22;10.80;99.80
3942;DHT22;1985;48.592;8.850;2023-04-24T13:12:48;10.90;99.30
3942;DHT22;1985;48.592;8.850;2023-04-24T13:15:14;10.90;98.40
3942;DHT22;1985;48.592;8.850;2023-04-24T13:17:39;11.00;97.60
3942;DHT22;1985;48.592;8.850;2023-04-24T13:20:05;11.20;97.60
3942;DHT22;1985;48.592;8.850;2023-04-24T13:22:31;11.40;96.70
3942;DHT22;1985;48.592;8.850;2023-04-24T13:24:57;11.60;95.90
3942;DHT22;1985;48.592;8.850;2023-04-24T13:27:22;11.70;96.30
3942;DHT22;1985;48.592;8.850;2023-04-24T13:29:48;11.60;95.90
3942;DHT22;1985;48.592;8.850;2023-04-24T13:32:14;11.60;96.20
3942;DHT22;1985;48.592;8.850;2023-04-24T13:34:40;11.60;95.30
3942;DHT22;1985;48.592;8.850;2023-04-24T13:37:05;11.60;95.10
3942;DHT22;1985;48.592;8.850;2023-04-24T13:39:31;11.60;95.50
3942;DHT22;1985;48.592;8.850;2023-04-24T13:41:57;11.40;94.50
3942;DHT22;1985;48.592;8.850;2023-04-24T13:44:23;11.20;95.10
3942;DHT22;1985;48.592;8.850;2023-04-24T13:46:53;11.00;95.10
3942;DHT22;1985;48.592;8.850;2023-04-24T13:49:20;10.90;95.20
3942;DHT22;1985;48.592;8.850;2023-04-24T13:51:46;10.90;95.80
3942;DHT22;1985;48.592;8.850;2023-04-24T13:54:12;10.90;95.60
3942;DHT22;1985;48.592;8.850;2023-04-24T13:56:39;10.90;95.60
3942;DHT22;1985;48.592;8.850;2023-04-24T13:59:05;10.90;95.70
3942;DHT22;1985;48.592;8.850;2023-04-24T14:01:30;10.90;95.60
3942;DHT22;1985;48.592;8.850;2023-04-24T14:03:56;10.80;95.60
3942;DHT22;1985;48.592;8.850;2023-04-24T14:06:22;10.70;94.90
3942;DHT22;1985;48.592;8.850;2023-04-24T14:08:49;10.80;95.70
3942;DHT22;1985;48.592;8.850;2023-04-24T14:11:16;10.90;95.60
3942;DHT22;1985;48.592;8.850;2023-04-24T14:13:42;11.00;96.10
3942;DHT22;1985;48.592;8.850;2023-04-24T14:16:09;11.00;95.50
3942;DHT22;1985;48.592;8.850;2023-04-24T14:18:35;11.00;95.80
3942;DHT22;1985;48.592;8.850;2023-04-24T14:21:01;11.10;95.60
3942;DHT22;1985;48.592;8.850;2023-04-24T14:23:27;11.10;95.30
3942;DHT22;1985;48.592;8.850;2023-04-24T14:25:53;11.10;95.80
3942;DHT22;1985;48.592;8.850;2023-04-24T14:28:19;11.20;95.80
3942;DHT22;1985;48.592;8.850;2023-04-24T14:30:46;11.30;96.20
3942;DHT22;1985;48.592;8.850;2023-04-24T14:33:11;11.30;95.00
3942;DHT22;1985;48.592;8.850;2023-04-24T14:35:38;11.00;95.60
3942;DHT22;1985;48.592;8.850;2023-04-24T14:38:04;10.90;95.10
3942;DHT22;1985;48.592;8.850;2023-04-24T14:40:29;10.90;95.60
3942;DHT22;1985;48.592;8.850;2023-04-24T14:42:56;10.70;95.20
3942;DHT22;1985;48.592;8.850;2023-04-24T14:45:23;10.60;95.50
3942;DHT22;1985;48.592;8.850;2023-04-24T14:47:49;10.80;96.40
3942;DHT22;1985;48.592;8.850;2023-04-24T14:50:15;10.90;95.70
3942;DHT22;1985;48.592;8.850;2023-04-24T14:52:40;11.10;95.80
3942;DHT22;1985;48.592;8.850;2023-04-24T14:55:06;11.20;95.50
3942;DHT22;1985;48.592;8.850;2023-04-24T14:57:32;11.50;95.70
3942;DHT22;1985;48.592;8.850;2023-04-24T14:59:58;11.70;95.10
3942;DHT22;1985;48.592;8.850;2023-04-24T15:02:24;11.80;94.70
3942;DHT22;1985;48.592;8.850;2023-04-24T15:04:49;11.70;93.90
3942;DHT22;1985;48.592;8.850;2023-04-24T15:07:15;11.80;93.70
3942;DHT22;1985;48.592;8.850;2023-04-24T15:09:41;11.80;94.40
3942;DHT22;1985;48.592;8.850;2023-04-24T15:12:06;12.30;94.90
3942;DHT22;1985;48.592;8.850;2023-04-24T15:14:32;12.60;93.90
3942;DHT22;1985;48.592;8.850;2023-04-24T15:16:57;12.50;92.70
3942;DHT22;1985;48.592;8.850;2023-04-24T15:19:23;12.20;92.00
3942;DHT22;1985;48.592;8.850;2023-04-24T15:21:49;12.30;92.50
3942;DHT22;1985;48.592;8.850;2023-04-24T15:24:14;12.20;92.50
3942;DHT22;1985;48.592;8.850;2023-04-24T15:26:40;11.90;92.50
3942;DHT22;1985;48.592;8.850;2023-04-24T15:29:05;11.90;93.20
3942;DHT22;1985;48.592;8.850;2023-04-24T15:31:31;12.10;92.90
3942;DHT22;1985;48.592;8.850;2023-04-24T15:33:57;12.30;93.10
3942;DHT22;1985;48.592;8.850;2023-04-24T15:36:22;12.60;92.10
3942;DHT22;1985;48.592;8.850;2023-04-24T15:38:49;12.60;91.60
3942;DHT22;1985;48.592;8.850;2023-04-24T15:41:15;12.40;92.50
3942;DHT22;1985;48.592;8.850;2023-04-24T15:43:40;12.50;92.20
3942;DHT22;1985;48.592;8.850;2023-04-24T15:46:07;12.70;92.60
3942;DHT22;1985;48.592;8.850;2023-04-24T15:48:33;13.10;91.30
3942;DHT22;1985;48.592;8.850;2023-04-24T15:50:58;13.00;91.00
3942;DHT22;1985;48.592;8.850;2023-04-24T15:53:25;12.90;90.20
3942;DHT22;1985;48.592;8.850;2023-04-24T15:55:51;12.80;90.20
3942;DHT22;1985;48.592;8.850;2023-04-24T15:58:18;12.80;89.60
3942;DHT22;1985;48.592;8.850;2023-04-24T16:00:44;13.20;89.30
3942;DHT22;1985;48.592;8.850;2023-04-24T16:03:10;13.20;86.30
3942;DHT22;1985;48.592;8.850;2023-04-24T16:05:36;12.90;88.50
3942;DHT22;1985;48.592;8.850;2023-04-24T16:08:02;13.00;89.60
3942;DHT22;1985;48.592;8.850;2023-04-24T16:10:27;13.00;89.40
3942;DHT22;1985;48.592;8.850;2023-04-24T16:12:53;12.70;88.30